| time (UTC) | temp F | wind direction | speed MPH | gust MPH | rain 1hr in | rain 24hr in | rain mn in | humidity % | barometer mb |
| 20260510211033 | 73 | 350 | 8.0 | 10.0 | 0.00 | 0.00 | 0.23 | 73 | 1017.5 |
| 20260510205633 | 73 | 23 | 5.0 | 10.0 | 0.00 | 0.00 | 0.23 | 73 | 1016.8 |
| 20260510204933 | 73 | 17 | 5.0 | 10.0 | 0.00 | 0.00 | 0.23 | 73 | 1017.2 |
| 20260510204233 | 74 | 6 | 8.0 | 10.0 | 0.00 | 0.00 | 0.23 | 74 | 1017.2 |
| 20260510203533 | 74 | 17 | 8.0 | 8.0 | 0.00 | 0.00 | 0.23 | 74 | 1017.5 |
| 20260510202833 | 74 | 6 | 2.0 | 10.0 | 0.00 | 0.00 | 0.23 | 73 | 1017.5 |
| 20260510202133 | 75 | 4 | 2.0 | 10.0 | 0.00 | 0.00 | 0.23 | 74 | 1017.5 |
| 20260510201433 | 75 | 353 | 8.0 | 10.0 | 0.00 | 0.00 | 0.23 | 74 | 1017.5 |
| 20260510200033 | 73 | 23 | 5.0 | 10.0 | 0.00 | 0.00 | 0.23 | 75 | 1017.5 |
| 20260510194633 | 74 | 66 | 8.0 | 12.0 | 0.00 | 0.00 | 0.23 | 75 | 1017.5 |
| 20260510193233 | 73 | 9 | 8.0 | 12.0 | 0.00 | 0.00 | 0.23 | 76 | 1017.5 |
| 20260510192533 | 73 | 18 | 2.0 | 14.0 | 0.00 | 0.00 | 0.23 | 76 | 1017.5 |
| 20260510185732 | 71 | 353 | 5.0 | 17.0 | 0.00 | 0.00 | 0.23 | 82 | 1017.5 |
| 20260510184333 | 69 | 1 | 5.0 | 17.0 | 0.00 | 0.00 | 0.23 | 83 | 1017.9 |
| 20260510183633 | 68 | 128 | 14.0 | 17.0 | 0.00 | 0.00 | 0.23 | 84 | 1017.9 |
| 20260510182933 | 67 | 261 | 22.0 | 17.0 | 0.00 | 0.00 | 0.23 | 86 | 1017.5 |
| 20260510182232 | 66 | 348 | 5.0 | 12.0 | 0.00 | 0.00 | 0.23 | 83 | 1017.9 |
| 20260510181532 | 65 | 66 | 5.0 | 14.0 | 0.00 | 0.00 | 0.23 | 81 | 1017.5 |
| 20260510180832 | 65 | 3 | 2.0 | 14.0 | 0.00 | 0.00 | 0.23 | 80 | 1017.2 |
| 20260510180133 | 65 | 5 | 5.0 | 14.0 | 0.00 | 0.00 | 0.23 | 80 | 1016.8 |
| 20260510175432 | 65 | 6 | 8.0 | 17.0 | 0.00 | 0.00 | 0.23 | 79 | 1017.2 |
| 20260510174032 | 67 | 351 | 8.0 | 17.0 | 0.00 | 0.00 | 0.16 | 75 | 1017.5 |
| 20260510173332 | 69 | 7 | 5.0 | 17.0 | 0.00 | 0.00 | 0.06 | 72 | 1018.2 |
| 20260510172635 | 71 | 14 | 14.0 | 17.0 | 0.00 | 0.00 | 0.00 | 68 | 1017.9 |
| 20260510171933 | 73 | 338 | 11.0 | 17.0 | 0.00 | 0.00 | 0.00 | 64 | 1017.9 |
| 20260510171233 | 76 | 23 | 8.0 | 17.0 | 0.00 | 0.00 | 0.00 | 61 | 1017.5 |
| 20260510170532 | 79 | 2 | 8.0 | 14.0 | 0.00 | 0.00 | 0.00 | 61 | 1017.5 |
| 20260510165832 | 80 | 7 | 0.0 | 14.0 | 0.00 | 0.00 | 0.00 | 65 | 1016.8 |
| 20260510165133 | 80 | 31 | 5.0 | 14.0 | 0.00 | 0.00 | 0.00 | 64 | 1016.5 |
| 20260510164433 | 80 | 7 | 8.0 | 14.0 | 0.00 | 0.00 | 0.00 | 63 | 1016.2 |
| 20260510163733 | 81 | 56 | 8.0 | 14.0 | 0.00 | 0.00 | 0.00 | 63 | 1015.8 |
| 20260510162333 | 82 | 1 | 8.0 | 14.0 | 0.00 | 0.00 | 0.00 | 62 | 1015.5 |
| 20260510160932 | 81 | 50 | 5.0 | 21.0 | 0.00 | 0.00 | 0.00 | 63 | 1014.8 |
| 20260510160233 | 80 | 126 | 14.0 | 21.0 | 0.00 | 0.00 | 0.00 | 63 | 1014.1 |
| 20260510155532 | 80 | 45 | 5.0 | 21.0 | 0.00 | 0.00 | 0.00 | 65 | 1014.5 |
| 20260510154833 | 79 | 22 | 5.0 | 21.0 | 0.00 | 0.00 | 0.00 | 65 | 1014.5 |
| 20260510154132 | 78 | 37 | 5.0 | 21.0 | 0.00 | 0.00 | 0.00 | 66 | 1014.5 |
| 20260510153434 | 78 | 81 | 8.0 | 21.0 | 0.00 | 0.00 | 0.00 | 67 | 1014.5 |
| 20260510152734 | 77 | 71 | 14.0 | 21.0 | 0.00 | 0.00 | 0.00 | 68 | 1014.5 |
| 20260510152032 | 76 | 1 | 8.0 | 14.0 | 0.00 | 0.00 | 0.00 | 69 | 1014.1 |
| 20260510151332 | 75 | 12 | 0.0 | 14.0 | 0.00 | 0.00 | 0.00 | 70 | 1014.5 |
| 20260510150632 | 74 | 330 | 5.0 | 14.0 | 0.00 | 0.00 | 0.00 | 70 | 1014.5 |
| 20260510145932 | 73 | 4 | 8.0 | 14.0 | 0.00 | 0.00 | 0.00 | 70 | 1014.5 |
| 20260510145232 | 73 | 335 | 5.0 | 14.0 | 0.00 | 0.00 | 0.00 | 70 | 1014.5 |
| 20260510144532 | 73 | 128 | 5.0 | 14.0 | 0.00 | 0.00 | 0.00 | 71 | 1014.5 |
| 20260510143832 | 72 | 118 | 5.0 | 14.0 | 0.00 | 0.00 | 0.00 | 72 | 1014.8 |
| 20260510143132 | 71 | 38 | 5.0 | 14.0 | 0.00 | 0.00 | 0.00 | 73 | 1014.8 |
| 20260510142432 | 71 | 64 | 17.0 | 14.0 | 0.00 | 0.00 | 0.00 | 73 | 1015.1 |
| 20260510141732 | 70 | 7 | 5.0 | 14.0 | 0.00 | 0.00 | 0.00 | 74 | 1015.5 |
| 20260510141032 | 70 | 11 | 5.0 | 14.0 | 0.00 | 0.00 | 0.00 | 74 | 1015.8 |
| 20260510140333 | 69 | 84 | 5.0 | 14.0 | 0.00 | 0.00 | 0.00 | 75 | 1015.8 |
| 20260510135632 | 69 | 6 | 11.0 | 14.0 | 0.00 | 0.00 | 0.00 | 75 | 1016.2 |
| 20260510134932 | 68 | 102 | 8.0 | 12.0 | 0.00 | 0.00 | 0.00 | 75 | 1016.2 |
| 20260510134232 | 68 | 0 | 8.0 | 12.0 | 0.00 | 0.00 | 0.00 | 75 | 1016.2 |
| 20260510133532 | 68 | 21 | 2.0 | 12.0 | 0.00 | 0.00 | 0.00 | 75 | 1016.5 |
| 20260510132833 | 68 | 110 | 8.0 | 12.0 | 0.00 | 0.00 | 0.00 | 76 | 1015.8 |
| 20260510132132 | 68 | 55 | 8.0 | 12.0 | 0.00 | 0.00 | 0.00 | 76 | 1015.5 |
| 20260510131432 | 68 | 51 | 2.0 | 12.0 | 0.00 | 0.00 | 0.00 | 76 | 1015.1 |
| 20260510130732 | 68 | 13 | 5.0 | 12.0 | 0.00 | 0.00 | 0.00 | 77 | 1015.1 |
| 20260510130031 | 68 | 7 | 2.0 | 10.0 | 0.00 | 0.00 | 0.00 | 76 | 1015.5 |
| 20260510125532 | 68 | 55 | 8.0 | 10.0 | 0.00 | 0.00 | 0.00 | 77 | 1015.1 |
| 20260510124832 | 68 | 33 | 5.0 | 10.0 | 0.00 | 0.00 | 0.00 | 77 | 1015.5 |
| 20260510124132 | 67 | 25 | 5.0 | 10.0 | 0.00 | 0.00 | 0.00 | 77 | 1015.1 |
| 20260510123432 | 67 | 67 | 5.0 | 10.0 | 0.00 | 0.00 | 0.00 | 77 | 1015.5 |
| 20260510122732 | 67 | 61 | 8.0 | 10.0 | 0.00 | 0.00 | 0.00 | 77 | 1015.1 |
| 20260510122032 | 67 | 20 | 5.0 | 10.0 | 0.00 | 0.00 | 0.00 | 77 | 1015.1 |
| 20260510121332 | 67 | 112 | 8.0 | 8.0 | 0.00 | 0.00 | 0.00 | 77 | 1014.8 |
| 20260510120632 | 67 | 89 | 5.0 | 8.0 | 0.00 | 0.00 | 0.00 | 77 | 1014.8 |
| 20260510115932 | 67 | 47 | 5.0 | 8.0 | 0.00 | 0.00 | 0.00 | 77 | 1014.8 |
| 20260510115232 | 67 | 11 | 2.0 | 8.0 | 0.00 | 0.00 | 0.00 | 77 | 1014.8 |
| 20260510114532 | 67 | 81 | 8.0 | 8.0 | 0.00 | 0.00 | 0.00 | 77 | 1014.8 |
| 20260510113832 | 67 | 19 | 2.0 | 10.0 | 0.00 | 0.00 | 0.00 | 76 | 1014.8 |
| 20260510112432 | 67 | 14 | 2.0 | 12.0 | 0.00 | 0.00 | 0.00 | 76 | 1014.5 |
| 20260510111034 | 67 | 8 | 2.0 | 17.0 | 0.00 | 0.00 | 0.00 | 76 | 1014.5 |
| 20260510110332 | 68 | 11 | 0.0 | 17.0 | 0.00 | 0.00 | 0.00 | 75 | 1014.5 |
| 20260510105632 | 68 | 12 | 0.0 | 17.0 | 0.00 | 0.00 | 0.00 | 75 | 1014.1 |
| 20260510104933 | 68 | 42 | 5.0 | 29.0 | 0.00 | 0.00 | 0.00 | 75 | 1014.5 |
| 20260510104232 | 69 | 105 | 8.0 | 29.0 | 0.00 | 0.00 | 0.00 | 74 | 1014.1 |
| 20260510103532 | 69 | 16 | 8.0 | 29.0 | 0.00 | 0.00 | 0.00 | 73 | 1014.5 |
| 20260510102832 | 69 | 21 | 8.0 | 29.0 | 0.00 | 0.00 | 0.00 | 73 | 1014.8 |
| 20260510102132 | 70 | 17 | 5.0 | 29.0 | 0.00 | 0.00 | 0.00 | 73 | 1014.5 |
| 20260510101432 | 70 | 353 | 5.0 | 29.0 | 0.00 | 0.00 | 0.00 | 72 | 1014.5 |
| 20260510095331 | 72 | 14 | 14.0 | 19.0 | 0.00 | 0.00 | 0.00 | 72 | 1014.5 |
| 20260510094632 | 73 | 350 | 8.0 | 19.0 | 0.00 | 0.00 | 0.00 | 73 | 1014.8 |
| 20260510093932 | 75 | 326 | 11.0 | 19.0 | 0.00 | 0.00 | 0.00 | 77 | 1014.5 |
| 20260510093232 | 75 | 351 | 14.0 | 12.0 | 0.00 | 0.00 | 0.00 | 80 | 1014.1 |
| 20260510092532 | 75 | 16 | 5.0 | 6.0 | 0.00 | 0.00 | 0.00 | 80 | 1014.1 |
| 20260510091832 | 75 | 1 | 5.0 | 6.0 | 0.00 | 0.00 | 0.00 | 80 | 1013.8 |
| 20260510091132 | 75 | 8 | 2.0 | 6.0 | 0.00 | 0.00 | 0.00 | 79 | 1013.5 |
| 20260510090431 | 74 | 17 | 0.0 | 0.0 | 0.00 | 0.00 | 0.00 | 79 | 1013.1 |
| 20260510085732 | 74 | 1 | 0.0 | 0.0 | 0.00 | 0.00 | 0.00 | 78 | 1012.8 |
| 20260510085031 | 74 | 13 | 0.0 | 0.0 | 0.00 | 0.00 | 0.00 | 78 | 1012.4 |
| 20260510084331 | 74 | 12 | 0.0 | 0.0 | 0.00 | 0.00 | 0.00 | 78 | 1012.4 |
| 20260510082931 | 73 | 12 | 0.0 | 0.0 | 0.00 | 0.00 | 0.00 | 78 | 1012.4 |
| 20260510082231 | 73 | 10 | 0.0 | 0.0 | 0.00 | 0.00 | 0.00 | 78 | 1012.4 |
| 20260510081532 | 73 | 14 | 0.0 | 0.0 | 0.00 | 0.00 | 0.00 | 77 | 1011.8 |
| 20260510080132 | 73 | 15 | 0.0 | 0.0 | 0.00 | 0.00 | 0.00 | 77 | 1011.4 |
| 20260510075431 | 73 | 14 | 0.0 | 0.0 | 0.00 | 0.00 | 0.00 | 76 | 1011.4 |
| 20260510074732 | 74 | 14 | 0.0 | 0.0 | 0.00 | 0.00 | 0.00 | 76 | 1011.4 |
| 20260510074031 | 74 | 14 | 0.0 | 0.0 | 0.00 | 0.00 | 0.00 | 75 | 1011.1 |
| 20260510073331 | 74 | 14 | 0.0 | 0.0 | 0.00 | 0.00 | 0.00 | 74 | 1011.1 |
| 20260510072631 | 75 | 15 | 0.0 | 0.0 | 0.00 | 0.00 | 0.00 | 74 | 1011.4 |
| 20260510071931 | 75 | 15 | 0.0 | 2.0 | 0.00 | 0.00 | 0.00 | 73 | 1011.4 |
| 20260510071232 | 75 | 16 | 0.0 | 2.0 | 0.00 | 0.00 | 0.00 | 73 | 1011.4 |
| 20260510070531 | 75 | 16 | 0.0 | 4.0 | 0.00 | 0.00 | 0.00 | 72 | 1011.4 |
| 20260510065832 | 75 | 13 | 0.0 | 6.0 | 0.00 | 0.00 | 0.00 | 73 | 1011.8 |
| 20260510064431 | 75 | 8 | 0.0 | 6.0 | 0.00 | 0.00 | 0.00 | 71 | 1012.1 |
| 20260510063731 | 76 | 24 | 0.0 | 8.0 | 0.00 | 0.00 | 0.00 | 71 | 1012.1 |
| 20260510063031 | 76 | 10 | 0.0 | 8.0 | 0.00 | 0.00 | 0.00 | 71 | 1012.1 |
| 20260510062331 | 76 | 5 | 0.0 | 8.0 | 0.00 | 0.00 | 0.00 | 70 | 1011.8 |
| 20260510061631 | 76 | 8 | 0.0 | 8.0 | 0.00 | 0.00 | 0.00 | 70 | 1011.1 |
| 20260510060931 | 76 | 7 | 0.0 | 8.0 | 0.00 | 0.00 | 0.00 | 69 | 1010.4 |
| 20260510060232 | 76 | 44 | 2.0 | 8.0 | 0.00 | 0.00 | 0.00 | 69 | 1010.1 |
| 20260510055531 | 76 | 22 | 2.0 | 8.0 | 0.00 | 0.00 | 0.00 | 69 | 1010.4 |
| 20260510054831 | 76 | 4 | 5.0 | 8.0 | 0.00 | 0.00 | 0.00 | 68 | 1010.4 |
| 20260510053431 | 76 | 71 | 2.0 | 6.0 | 0.00 | 0.00 | 0.00 | 68 | 1010.4 |
| 20260510052731 | 76 | 16 | 0.0 | 6.0 | 0.00 | 0.00 | 0.00 | 67 | 1010.4 |
| 20260510052031 | 76 | 20 | 0.0 | 6.0 | 0.00 | 0.00 | 0.00 | 67 | 1010.1 |
| 20260510051331 | 76 | 20 | 2.0 | 6.0 | 0.00 | 0.00 | 0.00 | 66 | 1010.1 |
| 20260510050631 | 76 | 14 | 2.0 | 6.0 | 0.00 | 0.00 | 0.00 | 66 | 1009.7 |
| 20260510045931 | 76 | 62 | 5.0 | 6.0 | 0.00 | 0.00 | 0.00 | 65 | 1009.7 |
| 20260510045232 | 76 | 13 | 2.0 | 6.0 | 0.00 | 0.00 | 0.00 | 65 | 1009.7 |
| 20260510044532 | 76 | 99 | 2.0 | 6.0 | 0.00 | 0.00 | 0.00 | 65 | 1009.7 |
| 20260510043831 | 76 | 12 | 0.0 | 6.0 | 0.00 | 0.00 | 0.00 | 64 | 1009.7 |
| 20260510043131 | 76 | 35 | 2.0 | 6.0 | 0.00 | 0.00 | 0.00 | 64 | 1009.7 |
| 20260510042432 | 77 | 9 | 0.0 | 4.0 | 0.00 | 0.00 | 0.00 | 64 | 1009.7 |
| 20260510041731 | 77 | 14 | 0.0 | 4.0 | 0.00 | 0.00 | 0.00 | 63 | 1009.7 |
| 20260510040332 | 77 | 9 | 0.0 | 4.0 | 0.00 | 0.00 | 0.00 | 62 | 1010.1 |
| 20260510035631 | 78 | 6 | 0.0 | 4.0 | 0.00 | 0.00 | 0.00 | 62 | 1010.1 |
| 20260510034231 | 78 | 11 | 0.0 | 4.0 | 0.00 | 0.00 | 0.00 | 61 | 1010.1 |
| 20260510033531 | 78 | 23 | 2.0 | 6.0 | 0.00 | 0.00 | 0.00 | 61 | 1010.1 |
| 20260510032831 | 79 | 14 | 0.0 | 6.0 | 0.00 | 0.00 | 0.00 | 61 | 1010.1 |
| 20260510032131 | 79 | 13 | 2.0 | 6.0 | 0.00 | 0.00 | 0.00 | 60 | 1010.4 |
| 20260510030734 | 79 | 35 | 2.0 | 6.0 | 0.00 | 0.00 | 0.00 | 60 | 1010.4 |
| 20260510030034 | 79 | 22 | 2.0 | 6.0 | 0.00 | 0.00 | 0.00 | 60 | 1010.1 |
| 20260510025334 | 79 | 22 | 2.0 | 6.0 | 0.00 | 0.00 | 0.00 | 59 | 1010.1 |
| 20260510024634 | 79 | 29 | 2.0 | 6.0 | 0.00 | 0.00 | 0.00 | 59 | 1010.1 |
| 20260510023934 | 79 | 345 | 2.0 | 6.0 | 0.00 | 0.00 | 0.00 | 60 | 1009.7 |
| 20260510023234 | 78 | 10 | 2.0 | 4.0 | 0.00 | 0.00 | 0.00 | 60 | 1009.7 |
| 20260510021134 | 79 | 11 | 0.0 | 0.0 | 0.00 | 0.00 | 0.00 | 57 | 1009.4 |
| 20260510020434 | 79 | 9 | 0.0 | 0.0 | 0.00 | 0.00 | 0.00 | 57 | 1009.4 |
| 20260510015734 | 80 | 13 | 0.0 | 0.0 | 0.00 | 0.00 | 0.00 | 56 | 1009.4 |
| 20260510015034 | 80 | 13 | 0.0 | 2.0 | 0.00 | 0.00 | 0.00 | 56 | 1009.4 |
| 20260510014334 | 80 | 13 | 0.0 | 2.0 | 0.00 | 0.00 | 0.00 | 55 | 1009.4 |
| 20260510013633 | 81 | 13 | 0.0 | 4.0 | 0.00 | 0.00 | 0.00 | 55 | 1009.1 |
| 20260510012934 | 81 | 13 | 0.0 | 6.0 | 0.00 | 0.00 | 0.00 | 54 | 1009.4 |
| 20260510011534 | 82 | 13 | 0.0 | 6.0 | 0.00 | 0.00 | 0.00 | 53 | 1009.1 |
| 20260510010835 | 83 | 13 | 0.0 | 6.0 | 0.00 | 0.00 | 0.00 | 53 | 1009.1 |
| 20260510005434 | 84 | 8 | 0.0 | 6.0 | 0.00 | 0.00 | 0.00 | 52 | 1008.7 |
| 20260510004734 | 84 | 14 | 5.0 | 6.0 | 0.00 | 0.00 | 0.00 | 52 | 1008.7 |
| 20260510004033 | 84 | 42 | 8.0 | 6.0 | 0.00 | 0.00 | 0.00 | 52 | 1008.7 |
| 20260510003334 | 85 | 34 | 8.0 | 6.0 | 0.00 | 0.00 | 0.00 | 52 | 1008.7 |
| 20260510002633 | 85 | 13 | 0.0 | 6.0 | 0.00 | 0.00 | 0.00 | 51 | 1008.7 |
| 20260510001933 | 85 | 57 | 8.0 | 6.0 | 0.00 | 0.00 | 0.00 | 51 | 1009.1 |
| 20260510000534 | 86 | 7 | 0.0 | 6.0 | 0.00 | 0.00 | 0.00 | 51 | 1008.7 |
| 20260509235834 | 86 | 8 | 2.0 | 6.0 | 0.00 | 0.00 | 0.00 | 51 | 1008.7 |
| 20260509235133 | 86 | 4 | 5.0 | 6.0 | 0.00 | 0.00 | 0.00 | 51 | 1008.4 |
| 20260509234434 | 86 | 16 | 2.0 | 6.0 | 0.00 | 0.00 | 0.00 | 51 | 1008.7 |
| 20260509233733 | 86 | 46 | 8.0 | 6.0 | 0.00 | 0.00 | 0.00 | 51 | 1008.7 |
| 20260509233034 | 86 | 10 | 0.0 | 6.0 | 0.00 | 0.00 | 0.00 | 51 | 1008.7 |
| 20260509232334 | 86 | 47 | 5.0 | 6.0 | 0.00 | 0.00 | 0.00 | 51 | 1008.4 |
| 20260509230934 | 87 | 21 | 5.0 | 10.0 | 0.00 | 0.00 | 0.00 | 52 | 1008.7 |
| 20260509230234 | 87 | 10 | 5.0 | 10.0 | 0.00 | 0.00 | 0.00 | 52 | 1008.7 |
| 20260509225534 | 86 | 11 | 5.0 | 10.0 | 0.00 | 0.00 | 0.00 | 52 | 1008.4 |
| 20260509224834 | 87 | 325 | 5.0 | 10.0 | 0.00 | 0.00 | 0.00 | 52 | 1008.7 |
| 20260509224133 | 87 | 37 | 5.0 | 10.0 | 0.00 | 0.00 | 0.00 | 53 | 1008.7 |
| 20260509223433 | 87 | 7 | 5.0 | 10.0 | 0.00 | 0.00 | 0.00 | 53 | 1008.7 |
| 20260509222733 | 87 | 10 | 5.0 | 10.0 | 0.00 | 0.00 | 0.00 | 53 | 1008.4 |
| 20260509222036 | 87 | 0 | 5.0 | 10.0 | 0.00 | 0.00 | 0.00 | 53 | 1008.4 |
| 20260509221333 | 88 | 262 | 5.0 | 10.0 | 0.00 | 0.00 | 0.00 | 53 | 1008.4 |
| 20260509220633 | 88 | 122 | 8.0 | 8.0 | 0.00 | 0.00 | 0.00 | 52 | 1008.7 |
| 20260509215934 | 89 | 83 | 5.0 | 8.0 | 0.00 | 0.00 | 0.00 | 52 | 1008.7 |
| 20260509215233 | 89 | 9 | 5.0 | 8.0 | 0.00 | 0.00 | 0.00 | 52 | 1008.7 |
| 20260509214533 | 90 | 8 | 2.0 | 8.0 | 0.00 | 0.00 | 0.00 | 52 | 1008.7 |
| 20260509213133 | 90 | 6 | 2.0 | 8.0 | 0.00 | 0.00 | 0.00 | 52 | 1008.7 |
| 20260509212433 | 90 | 74 | 11.0 | 8.0 | 0.00 | 0.00 | 0.00 | 53 | 1008.7 |
| 20260509211733 | 90 | 41 | 5.0 | 10.0 | 0.00 | 0.00 | 0.00 | 53 | 1009.1 |